| time (UTC) | temp F | wind direction | speed MPH | gust MPH | rain 1hr in | rain 24hr in | rain mn in | humidity % | barometer mb |
| 20260904234027 | 59 | 330 | 0.0 | 2.0 | 0.00 | 0.26 | 0.00 | 87 | |
| 20260904233019 | 60 | 320 | 0.0 | 2.0 | 0.00 | 0.26 | 0.00 | 87 | |
| 20260904232027 | 60 | 189 | 0.0 | 2.0 | 0.00 | 0.26 | 0.00 | 87 | |
| 20260904231019 | 60 | 148 | 0.0 | 3.0 | 0.00 | 0.26 | 0.00 | 86 | |
| 20260904230029 | 61 | 359 | 1.0 | 4.0 | 0.00 | 0.26 | 0.00 | 85 | |
| 20260904225021 | 61 | 358 | 2.0 | 7.0 | 0.00 | 0.26 | 0.00 | 83 | |
| 20260904224027 | 61 | 342 | 3.0 | 7.0 | 0.00 | 0.26 | 0.00 | 83 | |
| 20260904223019 | 61 | 350 | 4.0 | 7.0 | 0.00 | 0.26 | 0.00 | 83 | |
| 20260904222027 | 62 | 330 | 2.0 | 4.0 | 0.00 | 0.26 | 0.00 | 87 | |
| 20260904221019 | 62 | 348 | 2.0 | 5.0 | 0.00 | 0.26 | 0.00 | 88 | |
| 20260904220027 | 62 | 1 | 2.0 | 5.0 | 0.00 | 0.26 | 0.00 | 88 | |
| 20260904215027 | 62 | 348 | 2.0 | 6.0 | 0.00 | 0.26 | 0.26 | 89 | |
| 20260904214029 | 62 | 348 | 1.0 | 3.0 | 0.00 | 0.26 | 0.26 | 89 | |
| 20260904213023 | 61 | 327 | 1.0 | 3.0 | 0.00 | 0.26 | 0.26 | 89 | |
| 20260904212029 | 61 | 349 | 1.0 | 4.0 | 0.00 | 0.26 | 0.26 | 90 | |
| 20260904211020 | 61 | 354 | 1.0 | 3.0 | 0.00 | 0.26 | 0.26 | 90 | |
| 20260904210023 | 61 | 325 | 0.0 | 4.0 | 0.00 | 0.26 | 0.26 | 91 | |
| 20260904205020 | 61 | 360 | 1.0 | 4.0 | 0.00 | 0.26 | 0.26 | 91 | |
| 20260904204030 | 61 | 340 | 1.0 | 3.0 | 0.00 | 0.26 | 0.26 | 91 | |
| 20260904203019 | 61 | 343 | 1.0 | 2.0 | 0.00 | 0.26 | 0.26 | 91 | |
| 20260904202028 | 61 | 346 | 1.0 | 3.0 | 0.00 | 0.26 | 0.26 | 92 | |
| 20260904201022 | 61 | 2 | 1.0 | 2.0 | 0.00 | 0.26 | 0.26 | 92 | |
| 20260904200020 | 61 | 85 | 0.0 | 2.0 | 0.00 | 0.26 | 0.26 | 92 | |
| 20260904195019 | 62 | 327 | 1.0 | 2.0 | 0.00 | 0.26 | 0.26 | 91 | |
| 20260904194027 | 62 | 340 | 2.0 | 4.0 | 0.00 | 0.26 | 0.26 | 90 | |
| 20260904193019 | 62 | 345 | 2.0 | 3.0 | 0.00 | 0.26 | 0.26 | 91 | |
| 20260904192021 | 62 | 352 | 1.0 | 4.0 | 0.00 | 0.26 | 0.26 | 91 | |
| 20260904191021 | 62 | 4 | 2.0 | 5.0 | 0.00 | 0.26 | 0.26 | 91 | |
| 20260904190027 | 62 | 342 | 3.0 | 6.0 | 0.00 | 0.26 | 0.26 | 92 | |
| 20260904185019 | 62 | 343 | 2.0 | 5.0 | 0.00 | 0.26 | 0.26 | 93 | |
| 20260904184027 | 62 | 346 | 2.0 | 3.0 | 0.00 | 0.26 | 0.26 | 93 | |
| 20260904183019 | 62 | 347 | 3.0 | 8.0 | 0.00 | 0.26 | 0.26 | 93 | |
| 20260904182029 | 63 | 343 | 3.0 | 7.0 | 0.00 | 0.26 | 0.26 | 93 | |
| 20260904181019 | 63 | 349 | 3.0 | 9.0 | 0.00 | 0.26 | 0.26 | 93 | |
| 20260904180030 | 63 | 352 | 4.0 | 9.0 | 0.00 | 0.26 | 0.26 | 93 | |
| 20260904175019 | 63 | 339 | 3.0 | 7.0 | 0.02 | 0.26 | 0.26 | 94 | |
| 20260904174027 | 63 | 356 | 3.0 | 7.0 | 0.04 | 0.26 | 0.26 | 95 | |
| 20260904173019 | 63 | 355 | 1.0 | 4.0 | 0.06 | 0.26 | 0.26 | 95 | |
| 20260904172029 | 63 | 348 | 3.0 | 6.0 | 0.09 | 0.26 | 0.26 | 96 | |
| 20260904171020 | 63 | 348 | 3.0 | 6.0 | 0.18 | 0.26 | 0.26 | 96 | |
| 20260904170027 | 63 | 357 | 3.0 | 8.0 | 0.21 | 0.26 | 0.26 | 96 | |
| 20260904165019 | 63 | 334 | 3.0 | 7.0 | 0.20 | 0.24 | 0.24 | 97 | |
| 20260904164027 | 63 | 351 | 4.0 | 10.0 | 0.20 | 0.22 | 0.22 | 97 | |
| 20260904163019 | 63 | 344 | 3.0 | 5.0 | 0.18 | 0.20 | 0.20 | 97 | |
| 20260904162027 | 63 | 343 | 3.0 | 7.0 | 0.14 | 0.17 | 0.17 | 97 | |
| 20260904161021 | 63 | 356 | 2.0 | 7.0 | 0.07 | 0.08 | 0.08 | 96 | |
| 20260904160027 | 64 | 339 | 2.0 | 4.0 | 0.05 | 0.05 | 0.05 | 95 | |
| 20260904155019 | 64 | 343 | 2.0 | 4.0 | 0.04 | 0.04 | 0.04 | 94 | |
| 20260904154029 | 64 | 345 | 2.0 | 3.0 | 0.02 | 0.02 | 0.02 | 94 | |
| 20260904153019 | 64 | 347 | 2.0 | 4.0 | 0.02 | 0.02 | 0.02 | 93 | |
| 20260904152032 | 65 | 339 | 2.0 | 5.0 | 0.02 | 0.02 | 0.02 | 92 | |
| 20260904151020 | 66 | 343 | 2.0 | 4.0 | 0.01 | 0.02 | 0.01 | 86 | |
| 20260904150027 | 68 | 319 | 3.0 | 7.0 | 0.00 | 0.01 | 0.00 | 82 | |
| 20260904145020 | 69 | 342 | 3.0 | 5.0 | 0.00 | 0.01 | 0.00 | 81 | |
| 20260904144022 | 69 | 341 | 3.0 | 5.0 | 0.00 | 0.01 | 0.00 | 78 | |
| 20260904143019 | 71 | 340 | 4.0 | 6.0 | 0.00 | 0.01 | 0.00 | 75 | |
| 20260904142027 | 75 | 344 | 3.0 | 6.0 | 0.00 | 0.01 | 0.00 | 67 | |
| 20260904141023 | 79 | 26 | 2.0 | 12.0 | 0.00 | 0.01 | 0.00 | 61 | |
| 20260904140024 | 79 | 335 | 2.0 | 4.0 | 0.00 | 0.01 | 0.00 | 61 | |
| 20260904135019 | 79 | 325 | 3.0 | 8.0 | 0.00 | 0.01 | 0.00 | 62 | |
| 20260904134029 | 79 | 353 | 3.0 | 10.0 | 0.00 | 0.01 | 0.00 | 60 | |
| 20260904133021 | 80 | 73 | 3.0 | 13.0 | 0.00 | 0.01 | 0.00 | 59 | |
| 20260904132027 | 82 | 341 | 2.0 | 9.0 | 0.00 | 0.01 | 0.00 | 57 | |
| 20260904131021 | 82 | 93 | 3.0 | 7.0 | 0.00 | 0.01 | 0.00 | 57 | |
| 20260904130029 | 82 | 53 | 3.0 | 15.0 | 0.00 | 0.01 | 0.00 | 57 | |
| 20260904125019 | 81 | 258 | 2.0 | 6.0 | 0.00 | 0.01 | 0.00 | 62 | |
| 20260904124027 | 79 | 357 | 2.0 | 5.0 | 0.00 | 0.01 | 0.00 | 65 | |
| 20260904123036 | 78 | 305 | 2.0 | 8.0 | 0.00 | 0.01 | 0.00 | 67 | |
| 20260904122022 | 77 | 265 | 2.0 | 10.0 | 0.00 | 0.01 | 0.00 | 70 | |
| 20260904121020 | 76 | 331 | 2.0 | 6.0 | 0.00 | 0.01 | 0.00 | 73 | |
| 20260904120029 | 75 | 17 | 2.0 | 7.0 | 0.00 | 0.01 | 0.00 | 75 | |
| 20260904115019 | 74 | 331 | 2.0 | 8.0 | 0.00 | 0.01 | 0.00 | 77 | |
| 20260904114028 | 74 | 230 | 2.0 | 8.0 | 0.00 | 0.05 | 0.00 | 77 | |
| 20260904113020 | 74 | 114 | 2.0 | 7.0 | 0.00 | 0.05 | 0.00 | 77 | |
| 20260904112027 | 74 | 275 | 2.0 | 7.0 | 0.00 | 0.12 | 0.00 | 76 | |
| 20260904111019 | 75 | 268 | 2.0 | 6.0 | 0.00 | 0.14 | 0.00 | 76 | |
| 20260904110029 | 74 | 227 | 3.0 | 8.0 | 0.00 | 0.14 | 0.00 | 76 | |
| 20260904105019 | 74 | 142 | 2.0 | 6.0 | 0.00 | 0.14 | 0.00 | 77 | |
| 20260904104027 | 74 | 217 | 2.0 | 6.0 | 0.00 | 0.14 | 0.00 | 76 | |
| 20260904103020 | 74 | 89 | 3.0 | 7.0 | 0.00 | 0.14 | 0.00 | 77 | |
| 20260904102029 | 73 | 186 | 3.0 | 10.0 | 0.00 | 0.14 | 0.00 | 78 | |
| 20260904101019 | 73 | 197 | 2.0 | 7.0 | 0.00 | 0.14 | 0.00 | 78 | |
| 20260904100027 | 74 | 145 | 2.0 | 6.0 | 0.00 | 0.14 | 0.00 | 77 | |
| 20260904095020 | 74 | 339 | 2.0 | 5.0 | 0.00 | 0.14 | 0.00 | 77 | |
| 20260904094027 | 74 | 171 | 3.0 | 7.0 | 0.00 | 0.14 | 0.00 | 77 | |
| 20260904093021 | 73 | 183 | 2.0 | 4.0 | 0.00 | 0.14 | 0.00 | 80 | |
| 20260904092023 | 73 | 174 | 1.0 | 4.0 | 0.00 | 0.14 | 0.00 | 79 | |
| 20260904091019 | 72 | 190 | 2.0 | 5.0 | 0.00 | 0.14 | 0.00 | 81 | |
| 20260904090027 | 72 | 149 | 2.0 | 6.0 | 0.00 | 0.14 | 0.00 | 81 | |
| 20260904085021 | 72 | 290 | 2.0 | 7.0 | 0.00 | 0.14 | 0.00 | 81 | |
| 20260904084027 | 71 | 222 | 2.0 | 6.0 | 0.00 | 0.14 | 0.00 | 81 | |
| 20260904083019 | 71 | 181 | 2.0 | 5.0 | 0.00 | 0.14 | 0.00 | 82 | |
| 20260904082028 | 71 | 178 | 1.0 | 4.0 | 0.00 | 0.14 | 0.00 | 81 | |
| 20260904081020 | 71 | 26 | 1.0 | 5.0 | 0.00 | 0.14 | 0.00 | 81 | |
| 20260904080027 | 70 | 56 | 2.0 | 5.0 | 0.00 | 0.14 | 0.00 | 82 | |
| 20260904075022 | 70 | 278 | 1.0 | 3.0 | 0.00 | 0.14 | 0.00 | 82 | |
| 20260904074029 | 70 | 263 | 2.0 | 8.0 | 0.00 | 0.14 | 0.00 | 82 | |
| 20260904073021 | 70 | 244 | 1.0 | 4.0 | 0.00 | 0.14 | 0.00 | 83 | |
| 20260904072028 | 69 | 157 | 1.0 | 4.0 | 0.00 | 0.14 | 0.00 | 85 | |
| 20260904071021 | 68 | 155 | 1.0 | 4.0 | 0.00 | 0.14 | 0.00 | 90 | |
| 20260904070025 | 68 | 150 | 1.0 | 3.0 | 0.00 | 0.14 | 0.00 | 90 | |
| 20260904065019 | 67 | 143 | 1.0 | 2.0 | 0.00 | 0.14 | 0.00 | 91 | |
| 20260904064027 | 67 | 151 | 1.0 | 2.0 | 0.00 | 0.14 | 0.00 | 91 | |
| 20260904063023 | 67 | 153 | 1.0 | 2.0 | 0.00 | 0.14 | 0.00 | 91 | |
| 20260904062019 | 66 | 140 | 1.0 | 2.0 | 0.00 | 0.14 | 0.00 | 92 | |
| 20260904061023 | 66 | 145 | 2.0 | 6.0 | 0.00 | 0.14 | 0.00 | 93 | |
| 20260904060029 | 65 | 141 | 1.0 | 2.0 | 0.00 | 0.14 | 0.00 | 94 | |
| 20260904055020 | 65 | 147 | 1.0 | 2.0 | 0.00 | 0.14 | 0.00 | 95 | |
| 20260904054029 | 64 | 135 | 1.0 | 3.0 | 0.00 | 0.14 | 0.00 | 95 | |
| 20260904053019 | 64 | 141 | 1.0 | 3.0 | 0.00 | 0.14 | 0.00 | 95 | |
| 20260904052020 | 64 | 146 | 1.0 | 3.0 | 0.00 | 0.14 | 0.00 | 95 | |
| 20260904051021 | 64 | 133 | 1.0 | 3.0 | 0.00 | 0.14 | 0.00 | 95 | |
| 20260904050029 | 64 | 145 | 1.0 | 4.0 | 0.00 | 0.14 | 0.00 | 95 | |
| 20260904045035 | 64 | 141 | 1.0 | 3.0 | 0.00 | 0.14 | 0.00 | 96 | |
| 20260904044027 | 64 | 144 | 1.0 | 3.0 | 0.00 | 0.14 | 0.00 | 96 | |
| 20260904043019 | 64 | 147 | 1.0 | 2.0 | 0.00 | 0.14 | 0.00 | 96 | |
| 20260904042027 | 64 | 210 | 1.0 | 2.0 | 0.00 | 0.14 | 0.00 | 96 | |
| 20260904041019 | 64 | 157 | 2.0 | 4.0 | 0.00 | 0.14 | 0.00 | 96 | |
| 20260904040024 | 64 | 144 | 1.0 | 3.0 | 0.00 | 0.14 | 0.00 | 95 | |
| 20260904035021 | 64 | 172 | 1.0 | 4.0 | 0.00 | 0.14 | 0.00 | 95 | |
| 20260904034029 | 64 | 157 | 1.0 | 2.0 | 0.00 | 0.14 | 0.00 | 95 | |
| 20260904033020 | 64 | 149 | 1.0 | 2.0 | 0.00 | 0.14 | 0.00 | 96 | |
| 20260904032029 | 63 | 151 | 0.0 | 2.0 | 0.00 | 0.14 | 0.00 | 96 | |
| 20260904031021 | 63 | 150 | 1.0 | 2.0 | 0.00 | 0.14 | 0.00 | 96 | |
| 20260904030029 | 63 | 92 | 0.0 | 1.0 | 0.00 | 0.14 | 0.00 | 96 | |
| 20260904025019 | 62 | 148 | 0.0 | 1.0 | 0.00 | 0.14 | 0.00 | 96 | |
| 20260904024027 | 62 | 177 | 1.0 | 2.0 | 0.00 | 0.14 | 0.00 | 96 | |
| 20260904023022 | 61 | 165 | 0.0 | 2.0 | 0.00 | 0.14 | 0.00 | 96 | |
| 20260904022028 | 61 | 189 | 0.0 | 1.0 | 0.00 | 0.14 | 0.00 | 95 | |
| 20260904021019 | 61 | 138 | 0.0 | 1.0 | 0.00 | 0.14 | 0.00 | 95 | |
| 20260904020027 | 61 | 0.0 | 1.0 | 0.00 | 0.14 | 0.00 | 95 | ||
| 20260904015023 | 62 | 341 | 0.0 | 1.0 | 0.00 | 0.14 | 0.00 | 94 | |
| 20260904014029 | 62 | 0.0 | 0.0 | 0.00 | 0.14 | 0.00 | 94 | ||
| 20260904013020 | 62 | 173 | 0.0 | 1.0 | 0.00 | 0.14 | 0.00 | 94 | |
| 20260904012029 | 62 | 0.0 | 0.0 | 0.00 | 0.14 | 0.00 | 94 | ||
| 20260904011021 | 62 | 357 | 0.0 | 2.0 | 0.00 | 0.14 | 0.00 | 93 | |
| 20260904010020 | 62 | 0.0 | 0.0 | 0.00 | 0.14 | 0.00 | 93 | ||
| 20260904005019 | 62 | 235 | 0.0 | 1.0 | 0.00 | 0.14 | 0.00 | 92 | |
| 20260904004027 | 62 | 0.0 | 0.0 | 0.00 | 0.14 | 0.00 | 92 | ||
| 20260904003021 | 63 | 244 | 0.0 | 1.0 | 0.00 | 0.14 | 0.00 | 91 | |
| 20260904002028 | 64 | 0.0 | 1.0 | 0.00 | 0.14 | 0.00 | 90 | ||
| 20260904001021 | 64 | 215 | 1.0 | 2.0 | 0.00 | 0.14 | 0.00 | 89 | |
| 20260904000025 | 64 | 109 | 0.0 | 2.0 | 0.00 | 0.14 | 0.00 | 89 | |
| 20260903235019 | 64 | 187 | 1.0 | 3.0 | 0.00 | 0.14 | 0.00 | 89 |